createdAt,value
2023-01-27T00:01:52.599Z,4.82
2023-01-27T00:04:22.608Z,4.38
2023-01-27T00:06:51.056Z,5.78
2023-01-27T00:09:19.485Z,4.30
2023-01-27T00:12:05.719Z,5.03
2023-01-27T00:14:34.824Z,6.07
2023-01-27T00:17:03.571Z,6.22
2023-01-27T00:19:33.695Z,5.13
2023-01-27T00:22:19.468Z,5.90
2023-01-27T00:24:49.490Z,4.90
2023-01-27T00:27:18.367Z,5.10
2023-01-27T00:29:47.004Z,5.70
2023-01-27T00:32:32.724Z,6.03
2023-01-27T00:35:02.483Z,5.25
2023-01-27T00:37:31.145Z,4.78
2023-01-27T00:39:59.939Z,4.72
2023-01-27T00:42:28.502Z,5.63
2023-01-27T00:45:14.408Z,5.32
2023-01-27T00:47:43.273Z,5.60
2023-01-27T00:50:14.112Z,6.68
2023-01-27T00:52:42.649Z,5.80
2023-01-27T00:55:12.474Z,5.38
2023-01-27T00:57:41.033Z,6.28
2023-01-27T01:00:13.354Z,5.95
2023-01-27T01:02:42.226Z,5.82
2023-01-27T01:05:11.057Z,5.80
2023-01-27T01:07:41.286Z,7.55
2023-01-27T01:10:12.040Z,5.85
2023-01-27T01:12:40.787Z,5.60
2023-01-27T01:15:10.827Z,5.45
2023-01-27T01:17:40.110Z,5.93
2023-01-27T01:20:10.136Z,6.03
2023-01-27T01:22:39.156Z,6.53
2023-01-27T01:25:10.913Z,6.75
2023-01-27T01:27:39.295Z,5.85
2023-01-27T01:30:10.066Z,7.05
2023-01-27T01:32:38.746Z,6.03
2023-01-27T01:35:08.233Z,6.25
2023-01-27T01:37:36.988Z,6.43
2023-01-27T01:40:06.307Z,6.20
2023-01-27T01:43:10.271Z,5.63
2023-01-27T01:45:48.014Z,6.10
2023-01-27T01:48:22.441Z,6.40
2023-01-27T01:50:56.509Z,6.55
2023-01-27T01:53:29.701Z,7.10
2023-01-27T01:56:00.468Z,6.63
2023-01-27T01:58:29.997Z,6.43
2023-01-27T02:01:00.478Z,6.82
2023-01-27T02:03:31.325Z,6.65
2023-01-27T02:06:00.373Z,6.30
2023-01-27T02:08:32.918Z,6.38
2023-01-27T02:11:01.295Z,7.50
2023-01-27T02:13:30.275Z,6.35
2023-01-27T02:16:01.219Z,8.05
2023-01-27T02:18:31.403Z,7.18
2023-01-27T02:21:00.619Z,6.78
2023-01-27T02:23:46.496Z,6.70
2023-01-27T02:26:22.184Z,7.70
2023-01-27T02:28:57.509Z,8.43
2023-01-27T02:31:26.975Z,7.30
2023-01-27T02:33:59.579Z,7.85
2023-01-27T02:36:32.160Z,7.60
2023-01-27T02:39:03.817Z,8.32
2023-01-27T02:41:37.929Z,8.45
2023-01-27T02:44:06.913Z,7.85
2023-01-27T02:46:35.963Z,7.38
2023-01-27T02:49:04.821Z,7.18
2023-01-27T02:51:33.737Z,8.30
2023-01-27T02:54:02.079Z,8.65
2023-01-27T02:56:30.589Z,8.40
2023-01-27T02:59:01.000Z,8.65
2023-01-27T03:01:32.805Z,8.15
2023-01-27T03:04:02.620Z,8.05
2023-01-27T03:06:31.667Z,9.45
2023-01-27T03:09:01.135Z,8.00
2023-01-27T03:11:46.861Z,9.65
2023-01-27T03:14:16.773Z,7.60
2023-01-27T03:17:02.712Z,7.47
2023-01-27T03:19:31.644Z,8.50
2023-01-27T03:22:02.260Z,7.68
2023-01-27T03:24:31.091Z,8.20
2023-01-27T03:27:00.036Z,7.47
2023-01-27T03:29:47.632Z,9.55
2023-01-27T03:32:17.008Z,8.23
2023-01-27T03:34:45.929Z,8.93
2023-01-27T03:37:31.782Z,8.23
2023-01-27T03:40:17.313Z,8.77
2023-01-27T03:43:03.137Z,7.82
2023-01-27T03:45:51.119Z,7.72
2023-01-27T03:48:21.198Z,7.40
2023-01-27T03:50:53.790Z,8.25
2023-01-27T03:53:23.205Z,6.68
2023-01-27T03:55:51.870Z,8.07
2023-01-27T03:58:22.832Z,7.07
2023-01-27T04:00:55.229Z,7.18
2023-01-27T04:03:42.828Z,6.85
2023-01-27T04:06:30.392Z,6.72
2023-01-27T04:08:59.645Z,7.22
2023-01-27T04:11:45.499Z,5.75
2023-01-27T04:14:14.544Z,6.07
2023-01-27T04:16:44.976Z,7.03
2023-01-27T04:19:14.888Z,7.57
2023-01-27T04:21:43.747Z,6.72
2023-01-27T04:24:22.466Z,5.72
2023-01-27T04:26:57.000Z,6.20
2023-01-27T04:29:27.294Z,6.95
2023-01-27T04:31:58.917Z,6.82
2023-01-27T04:34:29.364Z,6.47
2023-01-27T04:37:00.602Z,7.90
2023-01-27T04:39:31.546Z,6.40
2023-01-27T04:42:00.508Z,5.80
2023-01-27T04:44:29.093Z,5.43
2023-01-27T04:46:59.738Z,5.25
2023-01-27T04:49:28.584Z,6.35
2023-01-27T04:51:57.532Z,6.57
2023-01-27T04:54:30.392Z,7.35
2023-01-27T04:57:00.637Z,6.33
2023-01-27T04:59:29.409Z,5.55
2023-01-27T05:02:00.251Z,5.97
2023-01-27T05:04:29.567Z,6.78
2023-01-27T05:06:58.606Z,6.25
2023-01-27T05:09:27.260Z,7.22
2023-01-27T05:11:55.862Z,6.20
2023-01-27T05:14:24.734Z,5.53
2023-01-27T05:16:54.326Z,5.03
2023-01-27T05:19:24.489Z,5.97
2023-01-27T05:21:53.268Z,5.82
2023-01-27T05:24:22.171Z,6.30
2023-01-27T05:26:51.379Z,6.22
2023-01-27T05:29:22.742Z,6.45
2023-01-27T05:31:52.017Z,6.25
2023-01-27T05:34:21.219Z,5.57
2023-01-27T05:36:52.046Z,5.20
2023-01-27T05:39:34.369Z,5.20
2023-01-27T05:42:03.269Z,5.22
2023-01-27T05:44:32.173Z,5.97
2023-01-27T05:47:00.896Z,5.78
2023-01-27T05:49:29.767Z,4.88
2023-01-27T05:52:01.650Z,6.30
2023-01-27T05:54:32.752Z,6.35
2023-01-27T05:57:01.429Z,6.35
2023-01-27T05:59:30.604Z,6.53
2023-01-27T06:02:07.558Z,5.13
2023-01-27T06:04:36.515Z,6.93
2023-01-27T06:07:07.149Z,5.70
2023-01-27T06:09:35.847Z,5.97
2023-01-27T06:12:04.736Z,5.35
2023-01-27T06:14:36.372Z,5.70
2023-01-27T06:17:13.661Z,6.82
2023-01-27T06:19:43.882Z,6.28
2023-01-27T06:22:14.541Z,6.03
2023-01-27T06:24:42.816Z,6.47
2023-01-27T06:27:11.774Z,5.50
2023-01-27T06:29:41.859Z,5.40
2023-01-27T06:32:10.727Z,5.25
2023-01-27T06:34:39.273Z,6.25
2023-01-27T06:37:08.183Z,7.30
2023-01-27T06:39:39.278Z,5.65
2023-01-27T06:42:11.135Z,5.82
2023-01-27T06:44:39.824Z,6.30
2023-01-27T06:47:09.740Z,5.10
2023-01-27T06:49:42.257Z,5.43
2023-01-27T06:52:13.571Z,6.75
2023-01-27T06:54:43.697Z,5.68
2023-01-27T06:57:15.264Z,5.75
2023-01-27T06:59:45.800Z,5.15
2023-01-27T07:02:14.310Z,5.50
2023-01-27T07:04:43.575Z,6.00
2023-01-27T07:07:14.453Z,7.10
2023-01-27T07:09:52.745Z,6.35
2023-01-27T07:12:21.800Z,6.30
2023-01-27T07:14:51.065Z,6.05
2023-01-27T07:17:33.194Z,5.63
2023-01-27T07:20:02.344Z,5.75
2023-01-27T07:22:33.182Z,4.88
2023-01-27T07:25:04.179Z,5.20
2023-01-27T07:27:33.270Z,6.00
2023-01-27T07:30:10.286Z,6.63
2023-01-27T07:32:39.435Z,6.90
2023-01-27T07:35:08.855Z,5.30
2023-01-27T07:37:38.459Z,5.35
2023-01-27T07:40:11.478Z,6.18
2023-01-27T07:42:40.464Z,6.55
2023-01-27T07:45:11.989Z,6.35
2023-01-27T07:47:41.857Z,5.63
2023-01-27T07:50:21.695Z,7.78
2023-01-27T07:52:50.453Z,6.78
2023-01-27T07:55:23.048Z,6.32
2023-01-27T07:57:54.748Z,6.63
2023-01-27T08:00:23.951Z,5.82
2023-01-27T08:02:53.124Z,5.45
2023-01-27T08:05:27.293Z,5.78
2023-01-27T08:07:58.788Z,6.47
2023-01-27T08:10:29.190Z,6.90
2023-01-27T08:12:57.819Z,7.90
2023-01-27T08:15:35.178Z,6.53
2023-01-27T08:18:04.262Z,5.05
2023-01-27T08:20:32.962Z,7.35
2023-01-27T08:23:05.863Z,6.80
2023-01-27T08:25:37.165Z,6.53
2023-01-27T08:28:05.827Z,6.07
2023-01-27T08:30:34.582Z,6.20
2023-01-27T08:33:02.982Z,7.25
2023-01-27T08:35:31.237Z,6.70
2023-01-27T08:38:00.585Z,7.22
2023-01-27T08:40:29.049Z,6.88
2023-01-27T08:43:00.491Z,5.65
2023-01-27T08:45:28.965Z,6.07
2023-01-27T08:47:57.633Z,6.05
2023-01-27T08:50:26.220Z,5.63
2023-01-27T08:52:55.138Z,6.22
2023-01-27T08:55:23.945Z,6.18
2023-01-27T08:57:52.457Z,7.03
2023-01-27T09:00:23.290Z,6.18
2023-01-27T09:02:54.132Z,6.80
2023-01-27T09:05:24.802Z,6.00
2023-01-27T09:07:53.221Z,6.03
2023-01-27T09:10:21.989Z,6.88
2023-01-27T09:12:50.435Z,6.13
2023-01-27T09:15:19.067Z,3.80
2023-01-27T09:17:49.037Z,6.72
2023-01-27T09:20:18.653Z,5.03
2023-01-27T09:22:47.345Z,5.38
2023-01-27T09:25:17.788Z,5.07
2023-01-27T09:27:46.349Z,5.15
2023-01-27T09:30:17.176Z,6.03
2023-01-27T09:32:45.767Z,4.80
2023-01-27T09:35:15.881Z,4.57
2023-01-27T09:37:48.794Z,5.63
2023-01-27T09:40:32.235Z,6.78
2023-01-27T09:43:30.338Z,4.30
2023-01-27T09:46:25.287Z,6.82
2023-01-27T09:49:30.196Z,6.40
2023-01-27T09:52:12.147Z,5.72
2023-01-27T09:55:00.014Z,4.70
2023-01-27T09:57:40.062Z,6.43
2023-01-27T10:00:43.309Z,5.32
2023-01-27T10:03:31.423Z,4.82
2023-01-27T10:06:32.113Z,6.50
2023-01-27T10:09:28.513Z,5.18
2023-01-27T10:12:04.056Z,4.75
2023-01-27T10:14:40.698Z,6.13
2023-01-27T10:17:21.805Z,5.60
2023-01-27T10:20:01.527Z,5.18
2023-01-27T10:22:43.735Z,5.47
2023-01-27T10:25:27.068Z,4.47
2023-01-27T10:27:59.046Z,6.07
2023-01-27T10:30:37.457Z,6.45
2023-01-27T10:33:16.323Z,4.68
2023-01-27T10:35:52.120Z,5.78
2023-01-27T10:38:32.287Z,5.28
2023-01-27T10:41:13.645Z,5.45
2023-01-27T10:43:54.815Z,4.90
2023-01-27T10:46:32.499Z,5.78
2023-01-27T10:49:08.848Z,5.28
2023-01-27T10:51:42.957Z,5.82
2023-01-27T10:54:15.777Z,5.38
2023-01-27T10:56:52.426Z,7.15
2023-01-27T10:59:27.300Z,5.20
2023-01-27T11:02:02.291Z,5.72
2023-01-27T11:04:39.435Z,5.13
2023-01-27T11:07:08.698Z,5.38
2023-01-27T11:09:45.383Z,5.95
2023-01-27T11:12:16.715Z,4.60
2023-01-27T11:14:48.081Z,5.13
2023-01-27T11:17:24.344Z,4.93
2023-01-27T11:20:00.353Z,4.20
2023-01-27T11:22:44.496Z,4.80
2023-01-27T11:28:07.721Z,3.90
2023-01-27T11:30:44.250Z,4.35
2023-01-27T11:33:23.815Z,4.55
2023-01-27T11:35:55.396Z,5.20
2023-01-27T11:38:25.691Z,6.32
2023-01-27T11:40:58.630Z,6.78
2023-01-27T11:43:34.824Z,5.43
2023-01-27T11:46:06.356Z,5.28
2023-01-27T11:48:41.458Z,5.43
2023-01-27T11:51:21.710Z,4.57
2023-01-27T11:53:54.971Z,5.13
2023-01-27T11:56:27.474Z,4.78
2023-01-27T11:59:06.509Z,4.38
2023-01-27T12:01:45.836Z,4.88
2023-01-27T12:04:20.484Z,4.40
2023-01-27T12:06:54.694Z,3.72
2023-01-27T12:09:45.573Z,4.57
2023-01-27T12:12:23.589Z,3.60
2023-01-27T12:14:55.979Z,4.03
2023-01-27T12:17:34.462Z,4.13
2023-01-27T12:20:16.053Z,4.13
2023-01-27T12:22:48.655Z,3.75
2023-01-27T12:25:21.665Z,3.95
2023-01-27T12:27:54.555Z,3.93
2023-01-27T12:30:35.158Z,4.32
2023-01-27T12:33:27.280Z,3.38
2023-01-27T12:36:02.864Z,3.40
2023-01-27T12:38:37.266Z,3.63
2023-01-27T12:41:08.827Z,3.45
2023-01-27T12:43:55.080Z,3.53
2023-01-27T12:46:28.449Z,3.30
2023-01-27T12:49:06.724Z,3.65
2023-01-27T12:51:41.528Z,4.97
2023-01-27T12:54:21.936Z,4.20
2023-01-27T12:56:50.794Z,3.10
2023-01-27T12:59:21.858Z,3.70
2023-01-27T13:02:03.519Z,3.15
2023-01-27T13:04:32.834Z,3.67
2023-01-27T13:07:08.322Z,4.82
2023-01-27T13:09:41.570Z,3.60
2023-01-27T13:12:20.873Z,4.20
2023-01-27T13:14:53.343Z,4.05
2023-01-27T13:17:38.956Z,4.32
2023-01-27T13:20:19.147Z,3.55
2023-01-27T13:22:51.083Z,3.80
2023-01-27T13:25:25.760Z,3.65
2023-01-27T13:27:59.995Z,4.13
2023-01-27T13:30:37.109Z,3.85
2023-01-27T13:33:24.883Z,4.03
2023-01-27T13:36:02.831Z,3.90
2023-01-27T13:38:40.526Z,4.28
2023-01-27T13:41:17.849Z,4.30
2023-01-27T13:43:57.454Z,4.28
2023-01-27T13:46:36.601Z,2.53
2023-01-27T13:49:19.163Z,3.60
2023-01-27T13:51:47.358Z,2.55
2023-01-27T13:54:18.072Z,3.35
2023-01-27T13:57:04.433Z,3.60
2023-01-27T13:59:44.909Z,3.35
2023-01-27T14:02:41.135Z,4.13
2023-01-27T14:05:31.371Z,3.15
2023-01-27T14:08:15.022Z,4.32
2023-01-27T14:10:58.654Z,3.58
2023-01-27T14:13:42.861Z,3.53
2023-01-27T14:18:50.725Z,3.13
2023-01-27T14:21:44.131Z,3.70
2023-01-27T14:24:37.586Z,2.95
2023-01-27T14:27:13.035Z,3.58
2023-01-27T14:29:48.501Z,3.35
2023-01-27T14:32:26.649Z,3.00
2023-01-27T14:35:20.143Z,3.25
2023-01-27T14:37:57.846Z,3.70
2023-01-27T14:40:31.571Z,3.90
2023-01-27T14:43:16.090Z,3.17
2023-01-27T14:45:59.153Z,3.03
2023-01-27T14:48:45.949Z,3.55
2023-01-27T14:51:26.630Z,3.47
2023-01-27T14:54:19.704Z,3.47
2023-01-27T14:57:11.562Z,3.13
2023-01-27T14:59:51.759Z,3.70
2023-01-27T15:02:41.023Z,3.80
2023-01-27T15:05:16.321Z,3.05
2023-01-27T15:07:52.874Z,3.42
2023-01-27T15:10:35.786Z,4.07
2023-01-27T15:13:40.518Z,4.18
2023-01-27T15:16:32.636Z,3.65
2023-01-27T15:19:32.142Z,3.40
2023-01-27T15:22:31.454Z,3.50
2023-01-27T15:25:22.029Z,3.08
2023-01-27T15:28:01.684Z,2.75
2023-01-27T15:30:31.936Z,3.47
2023-01-27T15:33:02.386Z,3.78
2023-01-27T15:35:39.118Z,3.60
2023-01-27T15:38:22.047Z,3.58
2023-01-27T15:41:13.348Z,3.30
2023-01-27T15:44:15.495Z,3.30
2023-01-27T15:46:56.253Z,4.35
2023-01-27T15:49:29.909Z,4.32
2023-01-27T15:52:12.735Z,4.35
2023-01-27T15:54:45.214Z,4.22
2023-01-27T15:57:31.609Z,3.45
2023-01-27T16:00:07.055Z,3.65
2023-01-27T16:02:40.603Z,3.75
2023-01-27T16:05:20.852Z,4.38
2023-01-27T16:07:54.065Z,3.78
2023-01-27T16:10:26.319Z,4.30
2023-01-27T16:13:20.681Z,5.30
2023-01-27T16:16:11.974Z,3.45
2023-01-27T16:18:47.001Z,3.38
2023-01-27T16:21:35.740Z,4.50
2023-01-27T16:24:14.637Z,3.67
2023-01-27T16:26:47.922Z,3.92
2023-01-27T16:29:30.379Z,3.58
2023-01-27T16:32:05.305Z,4.07
2023-01-27T16:34:39.801Z,4.60
2023-01-27T16:37:23.078Z,4.20
2023-01-27T16:39:58.907Z,3.43
2023-01-27T16:42:33.835Z,4.57
2023-01-27T16:45:05.345Z,4.72
2023-01-27T16:47:43.240Z,3.75
2023-01-27T16:50:34.290Z,4.18
2023-01-27T16:53:06.711Z,4.40
2023-01-27T16:55:37.313Z,3.67
2023-01-27T16:58:06.796Z,4.40
2023-01-27T17:00:37.624Z,5.03
2023-01-27T17:03:24.808Z,5.15
2023-01-27T17:05:56.959Z,4.15
2023-01-27T17:08:27.880Z,5.50
2023-01-27T17:10:59.811Z,6.38
2023-01-27T17:13:30.859Z,5.25
2023-01-27T17:16:01.023Z,6.50
2023-01-27T17:18:52.241Z,6.13
2023-01-27T17:21:31.112Z,6.30
2023-01-27T17:24:05.831Z,5.65
2023-01-27T17:26:35.725Z,5.75
2023-01-27T17:29:07.545Z,5.32
2023-01-27T17:31:39.711Z,5.55
2023-01-27T17:34:16.835Z,6.30
2023-01-27T17:37:23.550Z,5.95
2023-01-27T17:39:56.428Z,5.43
2023-01-27T17:42:27.615Z,4.80
2023-01-27T17:44:58.142Z,5.03
2023-01-27T17:47:26.909Z,5.63
2023-01-27T17:49:56.755Z,5.00
2023-01-27T17:52:27.678Z,5.40
2023-01-27T17:54:57.053Z,5.97
2023-01-27T17:57:32.521Z,5.65
2023-01-27T18:00:05.224Z,5.97
2023-01-27T18:02:36.915Z,4.80
2023-01-27T18:05:15.882Z,5.07
2023-01-27T18:07:47.219Z,5.20
2023-01-27T18:10:25.665Z,4.93
2023-01-27T18:12:55.316Z,5.03
2023-01-27T18:15:42.953Z,5.22
2023-01-27T18:18:27.338Z,5.03
2023-01-27T18:21:14.781Z,4.65
2023-01-27T18:23:45.774Z,5.57
2023-01-27T18:26:21.558Z,6.57
2023-01-27T18:28:53.394Z,5.38
2023-01-27T18:31:24.845Z,5.88
2023-01-27T18:34:03.623Z,5.70
2023-01-27T18:36:36.481Z,5.10
2023-01-27T18:39:25.985Z,4.05
2023-01-27T18:41:55.987Z,5.28
2023-01-27T18:44:27.435Z,5.22
2023-01-27T18:47:01.409Z,5.05
2023-01-27T18:49:35.160Z,5.15
2023-01-27T18:52:12.807Z,4.32
2023-01-27T18:54:41.528Z,5.25
2023-01-27T18:57:11.637Z,4.68
2023-01-27T18:59:40.401Z,4.75
2023-01-27T19:02:16.560Z,4.57
2023-01-27T19:04:45.856Z,5.22
2023-01-27T19:07:18.118Z,5.03
2023-01-27T19:09:47.994Z,5.60
2023-01-27T19:12:19.172Z,4.55
2023-01-27T19:14:49.071Z,5.45
2023-01-27T19:17:20.356Z,4.65
2023-01-27T19:19:50.542Z,4.05
2023-01-27T19:22:21.530Z,3.63
2023-01-27T19:24:50.790Z,4.57
2023-01-27T19:27:20.819Z,3.78
2023-01-27T19:29:51.948Z,3.85
2023-01-27T19:32:23.404Z,3.78
2023-01-27T19:34:53.275Z,3.63
2023-01-27T19:37:23.291Z,3.85
2023-01-27T19:39:54.860Z,3.90
2023-01-27T19:42:23.282Z,3.75
2023-01-27T19:44:51.884Z,3.35
2023-01-27T19:47:20.355Z,4.00
2023-01-27T19:49:52.333Z,3.50
2023-01-27T19:52:28.366Z,3.00
2023-01-27T19:54:58.622Z,3.70
2023-01-27T19:57:31.031Z,3.67
2023-01-27T19:59:59.473Z,2.80
2023-01-27T20:02:27.926Z,4.03
2023-01-27T20:04:56.369Z,3.33
2023-01-27T20:07:26.519Z,3.70
2023-01-27T20:09:55.365Z,3.58
2023-01-27T20:12:28.636Z,3.10
2023-01-27T20:14:57.332Z,3.13
2023-01-27T20:17:27.850Z,3.42
2023-01-27T20:19:56.009Z,4.10
2023-01-27T20:22:26.771Z,2.85
2023-01-27T20:24:57.225Z,2.60
2023-01-27T20:27:27.349Z,3.40
2023-01-27T20:29:55.732Z,3.63
2023-01-27T20:32:25.787Z,2.63
2023-01-27T20:34:54.746Z,3.13
2023-01-27T20:37:22.973Z,3.85
2023-01-27T20:39:54.475Z,3.42
2023-01-27T20:42:22.740Z,3.50
2023-01-27T20:44:52.573Z,2.90
2023-01-27T20:47:28.481Z,2.83
2023-01-27T20:49:57.076Z,3.72
2023-01-27T20:52:30.446Z,3.67
2023-01-27T20:55:01.927Z,3.03
2023-01-27T20:57:31.344Z,3.63
2023-01-27T21:00:02.939Z,3.90
2023-01-27T21:02:31.779Z,3.60
2023-01-27T21:05:02.116Z,2.70
2023-01-27T21:07:30.704Z,2.28
2023-01-27T21:10:04.917Z,2.92
2023-01-27T21:12:33.709Z,3.28
2023-01-27T21:15:15.278Z,3.03
2023-01-27T21:17:45.098Z,3.45
2023-01-27T21:20:14.109Z,3.55
2023-01-27T21:22:43.859Z,3.20
2023-01-27T21:25:12.857Z,3.10
2023-01-27T21:27:42.192Z,3.08
2023-01-27T21:30:14.524Z,2.83
2023-01-27T21:32:52.328Z,3.20
2023-01-27T21:35:21.283Z,3.40
2023-01-27T21:37:52.067Z,2.55
2023-01-27T21:40:22.652Z,3.42
2023-01-27T21:43:08.106Z,2.97
2023-01-27T21:45:39.997Z,2.50
2023-01-27T21:48:09.057Z,3.13
2023-01-27T21:50:38.741Z,2.47
2023-01-27T21:53:12.718Z,2.47
2023-01-27T21:55:41.403Z,2.80
2023-01-27T21:58:10.091Z,3.17
2023-01-27T22:00:40.269Z,2.95
2023-01-27T22:03:08.533Z,2.47
2023-01-27T22:05:39.218Z,2.58
2023-01-27T22:08:08.612Z,2.72
2023-01-27T22:10:37.102Z,2.35
2023-01-27T22:13:08.961Z,2.70
2023-01-27T22:15:37.625Z,3.10
2023-01-27T22:18:09.267Z,3.50
2023-01-27T22:20:38.157Z,2.58
2023-01-27T22:23:06.353Z,3.67
2023-01-27T22:25:34.509Z,3.03
2023-01-27T22:28:03.837Z,8.50
2023-01-27T22:30:32.800Z,3.72
2023-01-27T22:33:03.981Z,2.72
2023-01-27T22:35:35.952Z,2.78
2023-01-27T22:38:04.543Z,3.17
2023-01-27T22:40:32.847Z,3.40
2023-01-27T22:43:09.890Z,2.65
2023-01-27T22:45:39.748Z,2.40
2023-01-27T22:48:11.005Z,2.97
2023-01-27T22:50:42.084Z,3.65
2023-01-27T22:53:12.317Z,3.15
2023-01-27T22:55:51.396Z,3.45
2023-01-27T22:58:22.772Z,3.53
2023-01-27T23:00:51.140Z,3.92
2023-01-27T23:03:21.555Z,20.42
2023-01-27T23:05:51.627Z,15.70
2023-01-27T23:08:20.891Z,4.30
2023-01-27T23:10:51.896Z,2.92
2023-01-27T23:13:20.724Z,2.47
2023-01-27T23:15:49.048Z,2.75
2023-01-27T23:18:17.692Z,3.63
2023-01-27T23:20:46.082Z,3.78
2023-01-27T23:23:16.872Z,3.47
2023-01-27T23:25:50.684Z,4.28
2023-01-27T23:28:33.584Z,2.72
2023-01-27T23:31:02.061Z,3.22
2023-01-27T23:33:36.345Z,3.20
2023-01-27T23:36:07.443Z,3.60
2023-01-27T23:38:45.082Z,3.47
2023-01-27T23:41:28.002Z,3.38
2023-01-27T23:43:58.268Z,3.67
2023-01-27T23:46:27.081Z,3.72
2023-01-27T23:48:57.148Z,3.17
2023-01-27T23:51:25.563Z,3.33
2023-01-27T23:53:56.037Z,4.18
2023-01-27T23:56:24.520Z,2.75
2023-01-27T23:58:53.945Z,2.90
